Cedar Park's Hourly Summary for Tuesday, March 14, 2017
Hour Temp
(f)
RH
(%)
Solar Rad.
(MJ/m2)
Rainfall
(in)
Wind
(mph)
3/14/2017 12:00 AM 48 83 0 0 0.07
3/14/2017 1:00 AM 49 71 0 0 0.17
3/14/2017 2:00 AM 47 72 0 0 0.11
3/14/2017 3:00 AM 45 66 0 0 0.51
3/14/2017 4:00 AM 43 63 0 0 0.74
3/14/2017 5:00 AM 39 80 0 0 0.26
3/14/2017 6:00 AM 40 70 0 0 1.16
3/14/2017 7:00 AM 40 67 0 0 0.63
3/14/2017 8:00 AM 36 73 0.01 0 0
3/14/2017 9:00 AM 38 70 0.43 0 0
3/14/2017 10:00 AM 46 48 1.14 0 1.75
3/14/2017 11:00 AM 50 41 1.46 0 2.77
3/14/2017 12:00 PM 54 38 2.48 0 2.58
3/14/2017 1:00 PM 58 38 2.92 0 3.77
3/14/2017 2:00 PM 63 37 3.07 0 3.75
3/14/2017 3:00 PM 65 35 2.66 0 5.68
3/14/2017 4:00 PM 67 35 2.6 0 5.61
3/14/2017 5:00 PM 68 36 2.16 0 6.96
3/14/2017 6:00 PM 68 38 0.65 0 7.75
3/14/2017 7:00 PM 68 38 0.1 0 6.35
3/14/2017 8:00 PM 65 39 0.04 0 4.74
3/14/2017 9:00 PM 61 43 0 0 0.6
3/14/2017 10:00 PM 55 55 0 0 0
3/14/2017 11:00 PM 53 62 0 0 0.02
Data Summary 52 54 19.72 0.00 2.33